sensor_id;sensor_type;location;lat;lon;timestamp;temperature;humidity
65584;DHT22;62116;43.582;1.470;2023-05-10T00:01:15;14.34;84.27
65584;DHT22;62116;43.582;1.470;2023-05-10T00:03:41;14.34;84.30
65584;DHT22;62116;43.582;1.470;2023-05-10T00:06:06;14.39;84.35
65584;DHT22;62116;43.582;1.470;2023-05-10T00:08:32;14.33;84.45
65584;DHT22;62116;43.582;1.470;2023-05-10T00:10:57;14.30;84.54
65584;DHT22;62116;43.582;1.470;2023-05-10T00:13:23;14.26;84.77
65584;DHT22;62116;43.582;1.470;2023-05-10T00:15:48;14.28;84.93
65584;DHT22;62116;43.582;1.470;2023-05-10T00:18:13;14.26;85.10
65584;DHT22;62116;43.582;1.470;2023-05-10T00:20:39;14.23;85.25
65584;DHT22;62116;43.582;1.470;2023-05-10T00:23:04;14.23;85.25
65584;DHT22;62116;43.582;1.470;2023-05-10T00:25:30;14.22;85.44
65584;DHT22;62116;43.582;1.470;2023-05-10T00:27:55;14.23;85.13
65584;DHT22;62116;43.582;1.470;2023-05-10T00:30:22;14.16;85.03
65584;DHT22;62116;43.582;1.470;2023-05-10T00:32:47;14.13;85.11
65584;DHT22;62116;43.582;1.470;2023-05-10T00:35:15;14.08;85.16
65584;DHT22;62116;43.582;1.470;2023-05-10T00:37:40;14.02;85.16
65584;DHT22;62116;43.582;1.470;2023-05-10T00:40:06;14.01;85.08
65584;DHT22;62116;43.582;1.470;2023-05-10T00:42:32;14.01;85.20
65584;DHT22;62116;43.582;1.470;2023-05-10T00:44:58;14.05;84.97
65584;DHT22;62116;43.582;1.470;2023-05-10T00:47:23;13.99;84.79
65584;DHT22;62116;43.582;1.470;2023-05-10T00:49:49;13.98;84.96
65584;DHT22;62116;43.582;1.470;2023-05-10T00:52:15;13.97;85.16
65584;DHT22;62116;43.582;1.470;2023-05-10T00:54:41;13.95;85.19
65584;DHT22;62116;43.582;1.470;2023-05-10T00:57:07;13.89;85.19
65584;DHT22;62116;43.582;1.470;2023-05-10T00:59:32;13.94;85.21
65584;DHT22;62116;43.582;1.470;2023-05-10T01:01:58;13.89;85.20
65584;DHT22;62116;43.582;1.470;2023-05-10T01:04:23;13.86;85.23
65584;DHT22;62116;43.582;1.470;2023-05-10T01:06:53;13.85;85.29
65584;DHT22;62116;43.582;1.470;2023-05-10T01:09:20;13.88;85.40
65584;DHT22;62116;43.582;1.470;2023-05-10T01:11:46;13.88;84.99
65584;DHT22;62116;43.582;1.470;2023-05-10T01:14:11;13.90;85.21
65584;DHT22;62116;43.582;1.470;2023-05-10T01:16:41;13.95;84.83
65584;DHT22;62116;43.582;1.470;2023-05-10T01:19:17;13.92;85.08
65584;DHT22;62116;43.582;1.470;2023-05-10T01:33:26;13.92;85.28
65584;DHT22;62116;43.582;1.470;2023-05-10T01:36:08;13.90;85.29
65584;DHT22;62116;43.582;1.470;2023-05-10T01:42:21;13.92;85.17
65584;DHT22;62116;43.582;1.470;2023-05-10T01:47:12;13.83;85.20
65584;DHT22;62116;43.582;1.470;2023-05-10T01:49:45;13.82;85.16
65584;DHT22;62116;43.582;1.470;2023-05-10T01:52:16;13.79;85.23
65584;DHT22;62116;43.582;1.470;2023-05-10T01:55:01;13.79;85.49
65584;DHT22;62116;43.582;1.470;2023-05-10T01:57:34;13.71;84.87
65584;DHT22;62116;43.582;1.470;2023-05-10T02:00:04;13.65;85.16
65584;DHT22;62116;43.582;1.470;2023-05-10T02:02:33;13.68;85.26
65584;DHT22;62116;43.582;1.470;2023-05-10T02:05:03;13.68;85.44
65584;DHT22;62116;43.582;1.470;2023-05-10T02:07:32;13.68;85.38
65584;DHT22;62116;43.582;1.470;2023-05-10T02:09:58;13.68;85.31
65584;DHT22;62116;43.582;1.470;2023-05-10T02:12:24;13.67;84.95
65584;DHT22;62116;43.582;1.470;2023-05-10T02:14:51;13.67;85.42
65584;DHT22;62116;43.582;1.470;2023-05-10T02:17:18;13.74;85.13
65584;DHT22;62116;43.582;1.470;2023-05-10T02:19:44;13.74;84.60
65584;DHT22;62116;43.582;1.470;2023-05-10T02:22:11;13.72;84.70
65584;DHT22;62116;43.582;1.470;2023-05-10T02:24:38;13.71;84.74
65584;DHT22;62116;43.582;1.470;2023-05-10T02:27:06;13.67;84.80
65584;DHT22;62116;43.582;1.470;2023-05-10T02:29:32;13.67;84.91
65584;DHT22;62116;43.582;1.470;2023-05-10T02:31:59;13.65;84.82
65584;DHT22;62116;43.582;1.470;2023-05-10T02:34:28;13.64;85.07
65584;DHT22;62116;43.582;1.470;2023-05-10T02:36:55;13.64;85.26
65584;DHT22;62116;43.582;1.470;2023-05-10T02:39:21;13.65;84.85
65584;DHT22;62116;43.582;1.470;2023-05-10T02:41:48;13.61;84.98
65584;DHT22;62116;43.582;1.470;2023-05-10T02:44:15;13.57;84.97
65584;DHT22;62116;43.582;1.470;2023-05-10T02:46:40;13.55;84.91
65584;DHT22;62116;43.582;1.470;2023-05-10T02:49:07;13.58;85.20
65584;DHT22;62116;43.582;1.470;2023-05-10T02:51:35;13.58;85.13
65584;DHT22;62116;43.582;1.470;2023-05-10T02:54:09;13.61;85.24
65584;DHT22;62116;43.582;1.470;2023-05-10T02:56:36;13.64;85.21
65584;DHT22;62116;43.582;1.470;2023-05-10T02:59:05;13.68;85.02
65584;DHT22;62116;43.582;1.470;2023-05-10T03:01:30;13.68;85.19
65584;DHT22;62116;43.582;1.470;2023-05-10T03:03:55;13.64;85.35
65584;DHT22;62116;43.582;1.470;2023-05-10T03:06:21;13.67;85.49
65584;DHT22;62116;43.582;1.470;2023-05-10T03:08:46;13.67;85.87
65584;DHT22;62116;43.582;1.470;2023-05-10T03:11:36;13.57;86.50
65584;DHT22;62116;43.582;1.470;2023-05-10T03:22:23;13.25;86.15
65584;DHT22;62116;43.582;1.470;2023-05-10T03:24:50;13.17;85.12
65584;DHT22;62116;43.582;1.470;2023-05-10T03:27:16;13.14;84.36
65584;DHT22;62116;43.582;1.470;2023-05-10T03:29:43;13.06;83.80
65584;DHT22;62116;43.582;1.470;2023-05-10T03:32:09;13.01;84.12
65584;DHT22;62116;43.582;1.470;2023-05-10T03:34:41;13.03;84.05
65584;DHT22;62116;43.582;1.470;2023-05-10T03:37:07;13.01;83.30
65584;DHT22;62116;43.582;1.470;2023-05-10T03:39:32;12.94;83.82
65584;DHT22;62116;43.582;1.470;2023-05-10T03:41:58;12.90;84.26
65584;DHT22;62116;43.582;1.470;2023-05-10T03:44:23;12.89;84.52
65584;DHT22;62116;43.582;1.470;2023-05-10T03:46:49;12.91;84.48
65584;DHT22;62116;43.582;1.470;2023-05-10T03:49:14;12.90;84.71
65584;DHT22;62116;43.582;1.470;2023-05-10T03:51:40;12.91;84.84
65584;DHT22;62116;43.582;1.470;2023-05-10T03:54:05;12.91;85.12
65584;DHT22;62116;43.582;1.470;2023-05-10T03:56:31;12.94;85.04
65584;DHT22;62116;43.582;1.470;2023-05-10T03:58:56;12.96;84.69
65584;DHT22;62116;43.582;1.470;2023-05-10T04:01:21;12.90;85.10
65584;DHT22;62116;43.582;1.470;2023-05-10T04:03:47;12.91;84.94
65584;DHT22;62116;43.582;1.470;2023-05-10T04:06:15;12.86;85.22
65584;DHT22;62116;43.582;1.470;2023-05-10T04:08:42;12.87;85.43
65584;DHT22;62116;43.582;1.470;2023-05-10T04:11:08;12.86;85.50
65584;DHT22;62116;43.582;1.470;2023-05-10T04:13:34;12.86;85.70
65584;DHT22;62116;43.582;1.470;2023-05-10T04:16:00;12.86;85.74
65584;DHT22;62116;43.582;1.470;2023-05-10T04:18:25;12.80;85.69
65584;DHT22;62116;43.582;1.470;2023-05-10T04:20:51;12.84;85.87
65584;DHT22;62116;43.582;1.470;2023-05-10T04:23:16;12.84;86.04
65584;DHT22;62116;43.582;1.470;2023-05-10T04:25:42;12.81;86.20
65584;DHT22;62116;43.582;1.470;2023-05-10T04:28:08;12.79;86.39
65584;DHT22;62116;43.582;1.470;2023-05-10T04:30:34;12.77;86.52
65584;DHT22;62116;43.582;1.470;2023-05-10T04:33:00;12.76;86.59
65584;DHT22;62116;43.582;1.470;2023-05-10T04:35:26;12.79;86.49
65584;DHT22;62116;43.582;1.470;2023-05-10T04:37:52;12.80;86.60
65584;DHT22;62116;43.582;1.470;2023-05-10T04:40:17;12.80;86.51
65584;DHT22;62116;43.582;1.470;2023-05-10T04:42:43;12.83;86.49
65584;DHT22;62116;43.582;1.470;2023-05-10T04:45:09;12.86;86.80
65584;DHT22;62116;43.582;1.470;2023-05-10T04:47:35;12.86;86.88
65584;DHT22;62116;43.582;1.470;2023-05-10T04:50:02;12.86;86.79
65584;DHT22;62116;43.582;1.470;2023-05-10T04:52:27;12.89;86.51
65584;DHT22;62116;43.582;1.470;2023-05-10T04:54:53;12.89;86.42
65584;DHT22;62116;43.582;1.470;2023-05-10T04:57:18;12.90;86.68
65584;DHT22;62116;43.582;1.470;2023-05-10T04:59:44;12.96;86.68
65584;DHT22;62116;43.582;1.470;2023-05-10T05:02:09;12.96;86.56
65584;DHT22;62116;43.582;1.470;2023-05-10T05:04:34;12.97;86.08
65584;DHT22;62116;43.582;1.470;2023-05-10T05:07:00;13.00;85.94
65584;DHT22;62116;43.582;1.470;2023-05-10T05:09:25;12.96;84.96
65584;DHT22;62116;43.582;1.470;2023-05-10T05:11:51;12.99;85.14
65584;DHT22;62116;43.582;1.470;2023-05-10T05:14:16;12.96;85.20
65584;DHT22;62116;43.582;1.470;2023-05-10T05:16:41;12.91;85.15
65584;DHT22;62116;43.582;1.470;2023-05-10T05:19:07;12.91;85.41
65584;DHT22;62116;43.582;1.470;2023-05-10T05:21:32;12.83;85.44
65584;DHT22;62116;43.582;1.470;2023-05-10T05:23:58;12.77;85.52
65584;DHT22;62116;43.582;1.470;2023-05-10T05:26:23;12.75;85.78
65584;DHT22;62116;43.582;1.470;2023-05-10T05:28:49;12.73;85.71
65584;DHT22;62116;43.582;1.470;2023-05-10T05:31:17;12.73;86.05
65584;DHT22;62116;43.582;1.470;2023-05-10T05:33:43;12.70;86.03
65584;DHT22;62116;43.582;1.470;2023-05-10T05:36:08;12.76;85.97
65584;DHT22;62116;43.582;1.470;2023-05-10T05:38:34;12.79;86.16
65584;DHT22;62116;43.582;1.470;2023-05-10T05:41:00;12.83;85.94
65584;DHT22;62116;43.582;1.470;2023-05-10T05:43:25;12.89;85.96
65584;DHT22;62116;43.582;1.470;2023-05-10T05:45:52;12.89;86.13
65584;DHT22;62116;43.582;1.470;2023-05-10T05:48:18;12.87;85.84
65584;DHT22;62116;43.582;1.470;2023-05-10T05:50:44;12.89;85.83
65584;DHT22;62116;43.582;1.470;2023-05-10T05:53:10;12.87;85.74
65584;DHT22;62116;43.582;1.470;2023-05-10T05:55:36;12.90;85.91
65584;DHT22;62116;43.582;1.470;2023-05-10T05:58:34;12.87;85.96
65584;DHT22;62116;43.582;1.470;2023-05-10T06:01:00;12.94;85.87
65584;DHT22;62116;43.582;1.470;2023-05-10T06:03:25;12.94;86.02
65584;DHT22;62116;43.582;1.470;2023-05-10T06:05:50;13.00;86.17
65584;DHT22;62116;43.582;1.470;2023-05-10T06:08:16;12.97;85.55
65584;DHT22;62116;43.582;1.470;2023-05-10T06:10:41;12.99;85.89
65584;DHT22;62116;43.582;1.470;2023-05-10T06:13:07;12.96;85.68
65584;DHT22;62116;43.582;1.470;2023-05-10T06:15:32;12.96;85.53
65584;DHT22;62116;43.582;1.470;2023-05-10T06:17:57;12.94;85.80
65584;DHT22;62116;43.582;1.470;2023-05-10T06:20:23;12.94;85.76
65584;DHT22;62116;43.582;1.470;2023-05-10T06:22:48;12.97;86.11
65584;DHT22;62116;43.582;1.470;2023-05-10T06:25:14;12.97;85.97
65584;DHT22;62116;43.582;1.470;2023-05-10T06:27:40;12.97;86.04
65584;DHT22;62116;43.582;1.470;2023-05-10T06:30:05;13.00;86.10
65584;DHT22;62116;43.582;1.470;2023-05-10T06:32:31;13.01;85.77
65584;DHT22;62116;43.582;1.470;2023-05-10T06:34:57;13.01;85.72
65584;DHT22;62116;43.582;1.470;2023-05-10T06:37:22;13.03;85.90
65584;DHT22;62116;43.582;1.470;2023-05-10T06:39:47;13.03;85.53
65584;DHT22;62116;43.582;1.470;2023-05-10T06:42:13;13.03;85.86
65584;DHT22;62116;43.582;1.470;2023-05-10T06:44:39;13.07;85.53
65584;DHT22;62116;43.582;1.470;2023-05-10T06:47:04;13.14;85.20
65584;DHT22;62116;43.582;1.470;2023-05-10T06:49:29;13.14;85.24
65584;DHT22;62116;43.582;1.470;2023-05-10T06:51:57;13.17;85.16
65584;DHT22;62116;43.582;1.470;2023-05-10T06:54:23;13.21;85.04
65584;DHT22;62116;43.582;1.470;2023-05-10T06:56:48;13.18;84.30
65584;DHT22;62116;43.582;1.470;2023-05-10T06:59:14;13.20;84.59
65584;DHT22;62116;43.582;1.470;2023-05-10T07:01:40;13.23;84.56
65584;DHT22;62116;43.582;1.470;2023-05-10T07:04:05;13.25;84.43
65584;DHT22;62116;43.582;1.470;2023-05-10T07:06:32;13.27;84.41
65584;DHT22;62116;43.582;1.470;2023-05-10T07:08:58;13.34;84.66
65584;DHT22;62116;43.582;1.470;2023-05-10T07:11:24;13.41;84.10
65584;DHT22;62116;43.582;1.470;2023-05-10T07:13:49;13.48;83.73
65584;DHT22;62116;43.582;1.470;2023-05-10T07:16:15;13.53;83.38
65584;DHT22;62116;43.582;1.470;2023-05-10T07:18:40;13.59;82.67
65584;DHT22;62116;43.582;1.470;2023-05-10T07:21:05;13.67;82.67
65584;DHT22;62116;43.582;1.470;2023-05-10T07:23:31;13.71;81.93
65584;DHT22;62116;43.582;1.470;2023-05-10T07:25:57;13.77;81.72
65584;DHT22;62116;43.582;1.470;2023-05-10T07:28:22;13.79;81.23
65584;DHT22;62116;43.582;1.470;2023-05-10T07:30:48;13.83;81.58
65584;DHT22;62116;43.582;1.470;2023-05-10T07:33:14;13.88;81.35
65584;DHT22;62116;43.582;1.470;2023-05-10T07:35:40;13.88;80.83
65584;DHT22;62116;43.582;1.470;2023-05-10T07:38:05;13.83;80.31
65584;DHT22;62116;43.582;1.470;2023-05-10T07:40:31;13.79;80.43
65584;DHT22;62116;43.582;1.470;2023-05-10T07:42:57;13.81;80.82
65584;DHT22;62116;43.582;1.470;2023-05-10T07:45:23;13.88;81.78
65584;DHT22;62116;43.582;1.470;2023-05-10T07:47:48;13.92;81.32
65584;DHT22;62116;43.582;1.470;2023-05-10T07:50:14;13.92;81.18
65584;DHT22;62116;43.582;1.470;2023-05-10T07:52:39;13.89;80.33
65584;DHT22;62116;43.582;1.470;2023-05-10T07:55:05;13.86;79.91
65584;DHT22;62116;43.582;1.470;2023-05-10T07:57:33;13.83;79.50
65584;DHT22;62116;43.582;1.470;2023-05-10T07:59:58;13.85;79.39
65584;DHT22;62116;43.582;1.470;2023-05-10T08:02:24;13.83;79.69
65584;DHT22;62116;43.582;1.470;2023-05-10T08:04:49;13.89;79.87
65584;DHT22;62116;43.582;1.470;2023-05-10T08:07:15;13.88;79.69
65584;DHT22;62116;43.582;1.470;2023-05-10T08:09:40;13.90;79.63
65584;DHT22;62116;43.582;1.470;2023-05-10T08:12:06;13.90;79.40
65584;DHT22;62116;43.582;1.470;2023-05-10T08:14:31;13.98;79.47
65584;DHT22;62116;43.582;1.470;2023-05-10T08:16:56;14.05;79.84
65584;DHT22;62116;43.582;1.470;2023-05-10T08:19:22;14.12;78.87
65584;DHT22;62116;43.582;1.470;2023-05-10T08:21:48;14.18;78.35
65584;DHT22;62116;43.582;1.470;2023-05-10T08:24:14;14.20;78.09
65584;DHT22;62116;43.582;1.470;2023-05-10T08:26:39;14.20;76.31
65584;DHT22;62116;43.582;1.470;2023-05-10T08:29:05;14.12;75.83
65584;DHT22;62116;43.582;1.470;2023-05-10T08:31:30;14.08;76.02
65584;DHT22;62116;43.582;1.470;2023-05-10T08:33:56;14.15;76.34
65584;DHT22;62116;43.582;1.470;2023-05-10T08:36:21;14.18;75.03
65584;DHT22;62116;43.582;1.470;2023-05-10T08:38:52;14.26;75.20
65584;DHT22;62116;43.582;1.470;2023-05-10T08:41:20;14.37;75.33
65584;DHT22;62116;43.582;1.470;2023-05-10T08:43:46;14.46;74.95
65584;DHT22;62116;43.582;1.470;2023-05-10T08:46:18;14.62;74.88
65584;DHT22;62116;43.582;1.470;2023-05-10T08:48:45;14.70;73.97
65584;DHT22;62116;43.582;1.470;2023-05-10T08:51:14;14.70;74.63
65584;DHT22;62116;43.582;1.470;2023-05-10T08:53:40;14.74;75.02
65584;DHT22;62116;43.582;1.470;2023-05-10T08:56:05;14.69;72.47
65584;DHT22;62116;43.582;1.470;2023-05-10T08:58:31;14.62;72.06
65584;DHT22;62116;43.582;1.470;2023-05-10T09:00:57;14.64;72.50
65584;DHT22;62116;43.582;1.470;2023-05-10T09:03:23;14.70;72.14
65584;DHT22;62116;43.582;1.470;2023-05-10T09:05:49;14.74;71.69
65584;DHT22;62116;43.582;1.470;2023-05-10T09:08:15;14.84;71.38
65584;DHT22;62116;43.582;1.470;2023-05-10T09:10:44;14.93;70.99
65584;DHT22;62116;43.582;1.470;2023-05-10T09:13:14;14.97;69.93
65584;DHT22;62116;43.582;1.470;2023-05-10T09:15:40;14.96;69.07
65584;DHT22;62116;43.582;1.470;2023-05-10T09:18:05;14.94;68.92
65584;DHT22;62116;43.582;1.470;2023-05-10T09:20:31;14.96;68.95
65584;DHT22;62116;43.582;1.470;2023-05-10T09:22:56;14.96;67.01
65584;DHT22;62116;43.582;1.470;2023-05-10T09:25:22;15.05;68.95
65584;DHT22;62116;43.582;1.470;2023-05-10T09:27:48;15.17;69.37
65584;DHT22;62116;43.582;1.470;2023-05-10T09:30:23;15.27;68.85
65584;DHT22;62116;43.582;1.470;2023-05-10T09:32:49;15.39;67.73
65584;DHT22;62116;43.582;1.470;2023-05-10T09:35:19;15.48;64.73
65584;DHT22;62116;43.582;1.470;2023-05-10T09:37:53;15.55;64.56
65584;DHT22;62116;43.582;1.470;2023-05-10T09:40:22;15.58;64.57
65584;DHT22;62116;43.582;1.470;2023-05-10T09:42:52;15.59;64.52
65584;DHT22;62116;43.582;1.470;2023-05-10T09:45:17;15.61;65.12
65584;DHT22;62116;43.582;1.470;2023-05-10T09:47:43;15.59;65.45
65584;DHT22;62116;43.582;1.470;2023-05-10T09:50:09;15.66;66.53
65584;DHT22;62116;43.582;1.470;2023-05-10T09:52:54;15.69;63.82
65584;DHT22;62116;43.582;1.470;2023-05-10T09:55:22;15.75;65.75
65584;DHT22;62116;43.582;1.470;2023-05-10T09:57:48;15.79;64.69
65584;DHT22;62116;43.582;1.470;2023-05-10T10:00:20;15.83;64.64
65584;DHT22;62116;43.582;1.470;2023-05-10T10:02:55;15.95;64.38
65584;DHT22;62116;43.582;1.470;2023-05-10T10:05:21;15.98;64.50
65584;DHT22;62116;43.582;1.470;2023-05-10T10:07:52;16.06;63.95
65584;DHT22;62116;43.582;1.470;2023-05-10T10:10:18;15.96;61.81
65584;DHT22;62116;43.582;1.470;2023-05-10T10:12:44;15.96;61.86
65584;DHT22;62116;43.582;1.470;2023-05-10T10:15:10;16.02;62.12
65584;DHT22;62116;43.582;1.470;2023-05-10T10:17:36;16.05;60.43
65584;DHT22;62116;43.582;1.470;2023-05-10T10:20:03;16.03;61.54
65584;DHT22;62116;43.582;1.470;2023-05-10T10:22:29;15.98;62.43
65584;DHT22;62116;43.582;1.470;2023-05-10T10:24:54;16.03;63.37
65584;DHT22;62116;43.582;1.470;2023-05-10T10:30:06;16.16;62.46
65584;DHT22;62116;43.582;1.470;2023-05-10T10:33:12;16.26;61.45
65584;DHT22;62116;43.582;1.470;2023-05-10T10:35:39;16.22;60.91
65584;DHT22;62116;43.582;1.470;2023-05-10T10:38:07;16.36;59.30
65584;DHT22;62116;43.582;1.470;2023-05-10T10:40:34;16.33;59.74
65584;DHT22;62116;43.582;1.470;2023-05-10T10:43:27;16.32;61.54
65584;DHT22;62116;43.582;1.470;2023-05-10T10:49:08;16.46;60.87
65584;DHT22;62116;43.582;1.470;2023-05-10T10:51:37;16.52;59.90
65584;DHT22;62116;43.582;1.470;2023-05-10T10:54:10;16.57;59.52
65584;DHT22;62116;43.582;1.470;2023-05-10T10:56:35;16.64;58.71
65584;DHT22;62116;43.582;1.470;2023-05-10T10:59:01;16.56;59.54
65584;DHT22;62116;43.582;1.470;2023-05-10T11:01:35;16.50;60.06
65584;DHT22;62116;43.582;1.470;2023-05-10T11:06:30;16.29;60.92
65584;DHT22;62116;43.582;1.470;2023-05-10T11:08:57;16.22;60.56
65584;DHT22;62116;43.582;1.470;2023-05-10T11:11:23;16.08;62.07
65584;DHT22;62116;43.582;1.470;2023-05-10T11:13:48;15.96;64.70
65584;DHT22;62116;43.582;1.470;2023-05-10T11:16:15;15.91;67.84
65584;DHT22;62116;43.582;1.470;2023-05-10T11:19:13;15.88;69.45
65584;DHT22;62116;43.582;1.470;2023-05-10T11:21:50;15.82;71.34
65584;DHT22;62116;43.582;1.470;2023-05-10T11:24:21;15.75;71.30
65584;DHT22;62116;43.582;1.470;2023-05-10T11:26:49;15.52;71.25
65584;DHT22;62116;43.582;1.470;2023-05-10T11:29:15;15.39;71.90
65584;DHT22;62116;43.582;1.470;2023-05-10T11:31:45;15.21;72.40
65584;DHT22;62116;43.582;1.470;2023-05-10T11:34:11;15.07;73.73
65584;DHT22;62116;43.582;1.470;2023-05-10T11:36:37;15.00;74.01
65584;DHT22;62116;43.582;1.470;2023-05-10T11:39:03;15.01;74.57
65584;DHT22;62116;43.582;1.470;2023-05-10T11:41:30;15.01;73.03
65584;DHT22;62116;43.582;1.470;2023-05-10T11:43:56;15.05;72.51
65584;DHT22;62116;43.582;1.470;2023-05-10T11:46:27;15.10;71.74
65584;DHT22;62116;43.582;1.470;2023-05-10T11:48:56;15.04;68.48
65584;DHT22;62116;43.582;1.470;2023-05-10T11:51:23;15.11;67.70
65584;DHT22;62116;43.582;1.470;2023-05-10T11:53:53;15.30;67.13
65584;DHT22;62116;43.582;1.470;2023-05-10T11:56:19;15.41;66.78
65584;DHT22;62116;43.582;1.470;2023-05-10T11:58:53;15.49;66.63
65584;DHT22;62116;43.582;1.470;2023-05-10T12:01:20;15.71;67.06
65584;DHT22;62116;43.582;1.470;2023-05-10T12:03:46;15.79;65.12
65584;DHT22;62116;43.582;1.470;2023-05-10T12:06:12;15.83;64.77
65584;DHT22;62116;43.582;1.470;2023-05-10T12:08:44;15.96;66.27
65584;DHT22;62116;43.582;1.470;2023-05-10T12:11:11;16.14;66.21
65584;DHT22;62116;43.582;1.470;2023-05-10T12:13:42;16.34;64.26
65584;DHT22;62116;43.582;1.470;2023-05-10T12:18:40;16.70;64.15
65584;DHT22;62116;43.582;1.470;2023-05-10T12:21:06;16.83;63.76
65584;DHT22;62116;43.582;1.470;2023-05-10T12:23:31;16.94;63.48
65584;DHT22;62116;43.582;1.470;2023-05-10T12:26:02;17.06;61.39
65584;DHT22;62116;43.582;1.470;2023-05-10T12:28:30;17.17;60.18
65584;DHT22;62116;43.582;1.470;2023-05-10T12:30:57;17.20;59.61
65584;DHT22;62116;43.582;1.470;2023-05-10T12:33:23;17.25;60.37
65584;DHT22;62116;43.582;1.470;2023-05-10T12:35:50;17.30;61.41
65584;DHT22;62116;43.582;1.470;2023-05-10T12:38:33;17.39;61.70
65584;DHT22;62116;43.582;1.470;2023-05-10T12:41:00;17.39;61.71
65584;DHT22;62116;43.582;1.470;2023-05-10T12:43:26;17.39;62.55
65584;DHT22;62116;43.582;1.470;2023-05-10T12:45:52;17.39;62.06
65584;DHT22;62116;43.582;1.470;2023-05-10T12:48:17;17.41;62.20
65584;DHT22;62116;43.582;1.470;2023-05-10T12:50:43;17.46;61.88
65584;DHT22;62116;43.582;1.470;2023-05-10T12:53:09;17.55;59.39
65584;DHT22;62116;43.582;1.470;2023-05-10T12:55:34;17.58;59.81
65584;DHT22;62116;43.582;1.470;2023-05-10T12:58:00;17.58;60.96
65584;DHT22;62116;43.582;1.470;2023-05-10T13:00:25;17.56;59.78
65584;DHT22;62116;43.582;1.470;2023-05-10T13:02:51;17.59;59.69
65584;DHT22;62116;43.582;1.470;2023-05-10T13:05:16;17.59;58.69
65584;DHT22;62116;43.582;1.470;2023-05-10T13:07:41;17.55;57.36
65584;DHT22;62116;43.582;1.470;2023-05-10T13:10:09;17.58;58.22
65584;DHT22;62116;43.582;1.470;2023-05-10T13:12:35;17.73;56.99
65584;DHT22;62116;43.582;1.470;2023-05-10T13:15:01;17.83;58.03
65584;DHT22;62116;43.582;1.470;2023-05-10T13:17:26;17.93;56.37
65584;DHT22;62116;43.582;1.470;2023-05-10T13:19:52;17.89;56.92
65584;DHT22;62116;43.582;1.470;2023-05-10T13:22:17;17.99;57.29
65584;DHT22;62116;43.582;1.470;2023-05-10T13:24:42;17.87;56.42
65584;DHT22;62116;43.582;1.470;2023-05-10T13:27:08;17.92;57.09
65584;DHT22;62116;43.582;1.470;2023-05-10T13:29:34;17.90;56.81
65584;DHT22;62116;43.582;1.470;2023-05-10T13:31:59;17.92;56.43
65584;DHT22;62116;43.582;1.470;2023-05-10T13:34:25;17.86;56.66
65584;DHT22;62116;43.582;1.470;2023-05-10T13:36:50;17.90;57.73
65584;DHT22;62116;43.582;1.470;2023-05-10T13:39:16;17.90;56.07
65584;DHT22;62116;43.582;1.470;2023-05-10T13:41:42;17.86;57.13
65584;DHT22;62116;43.582;1.470;2023-05-10T13:44:07;17.83;57.39
65584;DHT22;62116;43.582;1.470;2023-05-10T13:46:33;17.73;56.95
65584;DHT22;62116;43.582;1.470;2023-05-10T13:48:58;17.65;57.04
65584;DHT22;62116;43.582;1.470;2023-05-10T13:51:24;17.51;56.10
65584;DHT22;62116;43.582;1.470;2023-05-10T13:53:49;17.51;55.91
65584;DHT22;62116;43.582;1.470;2023-05-10T13:56:15;17.55;55.22
65584;DHT22;62116;43.582;1.470;2023-05-10T13:58:40;17.71;56.19
65584;DHT22;62116;43.582;1.470;2023-05-10T14:01:06;17.85;55.68
65584;DHT22;62116;43.582;1.470;2023-05-10T14:03:31;17.86;57.33
65584;DHT22;62116;43.582;1.470;2023-05-10T14:05:57;17.75;59.41
65584;DHT22;62116;43.582;1.470;2023-05-10T14:08:23;17.59;61.40
65584;DHT22;62116;43.582;1.470;2023-05-10T14:10:48;17.46;61.96
65584;DHT22;62116;43.582;1.470;2023-05-10T14:13:14;17.31;62.26
65584;DHT22;62116;43.582;1.470;2023-05-10T14:15:40;17.14;62.76
65584;DHT22;62116;43.582;1.470;2023-05-10T14:18:06;16.98;64.05
65584;DHT22;62116;43.582;1.470;2023-05-10T14:20:31;16.88;64.30
65584;DHT22;62116;43.582;1.470;2023-05-10T14:22:59;16.84;63.36
65584;DHT22;62116;43.582;1.470;2023-05-10T14:25:24;16.73;63.89
65584;DHT22;62116;43.582;1.470;2023-05-10T14:27:50;16.61;63.24
65584;DHT22;62116;43.582;1.470;2023-05-10T14:30:16;16.56;64.53
65584;DHT22;62116;43.582;1.470;2023-05-10T14:32:41;16.52;63.76
65584;DHT22;62116;43.582;1.470;2023-05-10T14:35:07;16.50;64.68
65584;DHT22;62116;43.582;1.470;2023-05-10T14:37:32;16.44;64.03
65584;DHT22;62116;43.582;1.470;2023-05-10T14:39:58;16.40;64.43
65584;DHT22;62116;43.582;1.470;2023-05-10T14:42:23;16.43;65.33
65584;DHT22;62116;43.582;1.470;2023-05-10T14:44:49;16.49;65.56
65584;DHT22;62116;43.582;1.470;2023-05-10T14:47:14;16.49;65.19
65584;DHT22;62116;43.582;1.470;2023-05-10T14:49:40;16.50;65.27
65584;DHT22;62116;43.582;1.470;2023-05-10T14:52:06;16.52;64.67
65584;DHT22;62116;43.582;1.470;2023-05-10T14:54:31;16.50;65.87
65584;DHT22;62116;43.582;1.470;2023-05-10T14:56:58;16.56;66.05
65584;DHT22;62116;43.582;1.470;2023-05-10T14:59:24;16.63;64.99
65584;DHT22;62116;43.582;1.470;2023-05-10T15:01:49;16.71;65.75
65584;DHT22;62116;43.582;1.470;2023-05-10T15:04:15;16.74;64.61
65584;DHT22;62116;43.582;1.470;2023-05-10T15:06:41;16.76;64.79
65584;DHT22;62116;43.582;1.470;2023-05-10T15:09:07;16.84;64.88
65584;DHT22;62116;43.582;1.470;2023-05-10T15:11:32;16.94;65.16
65584;DHT22;62116;43.582;1.470;2023-05-10T15:13:58;16.98;64.64
65584;DHT22;62116;43.582;1.470;2023-05-10T15:16:23;17.00;64.06
65584;DHT22;62116;43.582;1.470;2023-05-10T15:18:49;17.01;64.96
65584;DHT22;62116;43.582;1.470;2023-05-10T15:21:14;16.98;64.20
65584;DHT22;62116;43.582;1.470;2023-05-10T15:23:40;16.92;63.46
65584;DHT22;62116;43.582;1.470;2023-05-10T15:26:05;16.87;63.82
65584;DHT22;62116;43.582;1.470;2023-05-10T15:28:31;16.77;63.45
65584;DHT22;62116;43.582;1.470;2023-05-10T15:30:56;16.73;63.86
65584;DHT22;62116;43.582;1.470;2023-05-10T15:33:22;16.70;64.62
65584;DHT22;62116;43.582;1.470;2023-05-10T15:35:47;16.68;64.32
65584;DHT22;62116;43.582;1.470;2023-05-10T15:38:13;16.57;64.44
65584;DHT22;62116;43.582;1.470;2023-05-10T15:40:39;16.47;63.31
65584;DHT22;62116;43.582;1.470;2023-05-10T15:43:04;16.34;63.80
65584;DHT22;62116;43.582;1.470;2023-05-10T15:45:30;16.29;63.97
65584;DHT22;62116;43.582;1.470;2023-05-10T15:47:57;16.30;62.88
65584;DHT22;62116;43.582;1.470;2023-05-10T15:50:22;16.30;62.19
65584;DHT22;62116;43.582;1.470;2023-05-10T15:52:48;16.27;61.58
65584;DHT22;62116;43.582;1.470;2023-05-10T15:55:14;16.26;62.29
65584;DHT22;62116;43.582;1.470;2023-05-10T15:57:40;16.34;62.92
65584;DHT22;62116;43.582;1.470;2023-05-10T16:00:07;16.36;63.19
65584;DHT22;62116;43.582;1.470;2023-05-10T16:02:33;16.37;64.36
65584;DHT22;62116;43.582;1.470;2023-05-10T16:04:58;16.42;63.42